createdAt,value
2023-03-05T00:01:55.534Z,36.03
2023-03-05T00:04:23.493Z,40.70
2023-03-05T00:06:50.112Z,41.03
2023-03-05T00:09:16.968Z,45.17
2023-03-05T00:11:44.098Z,61.03
2023-03-05T00:14:11.086Z,43.92
2023-03-05T00:16:37.655Z,45.08
2023-03-05T00:19:04.346Z,40.08
2023-03-05T00:21:34.061Z,39.22
2023-03-05T00:24:02.648Z,44.33
2023-03-05T00:26:31.080Z,39.75
2023-03-05T00:28:58.581Z,46.35
2023-03-05T00:31:30.566Z,48.35
2023-03-05T00:34:00.381Z,42.40
2023-03-05T00:36:28.307Z,31.45
2023-03-05T00:38:55.148Z,40.38
2023-03-05T00:41:21.828Z,36.83
2023-03-05T00:43:48.615Z,42.45
2023-03-05T00:46:15.534Z,44.67
2023-03-05T00:48:42.185Z,46.20
2023-03-05T00:51:09.318Z,66.82
2023-03-05T00:53:36.018Z,43.53
2023-03-05T00:56:02.613Z,35.95
2023-03-05T00:58:29.820Z,35.45
2023-03-05T01:01:01.512Z,36.00
2023-03-05T01:03:29.251Z,39.65
2023-03-05T01:05:55.983Z,37.30
2023-03-05T01:08:22.695Z,46.90
2023-03-05T01:10:49.254Z,44.45
2023-03-05T01:13:15.986Z,32.72
2023-03-05T01:15:42.549Z,34.80
2023-03-05T01:18:09.280Z,36.60
2023-03-05T01:20:36.444Z,32.03
2023-03-05T01:23:03.240Z,32.72
2023-03-05T01:25:29.880Z,32.42
2023-03-05T01:27:56.872Z,33.03
2023-03-05T01:30:23.581Z,39.45
2023-03-05T01:32:50.272Z,35.38
2023-03-05T01:35:20.532Z,30.08
2023-03-05T01:37:47.439Z,34.97
2023-03-05T01:40:16.920Z,39.65
2023-03-05T01:42:48.785Z,39.50
2023-03-05T01:45:18.033Z,35.85
2023-03-05T01:47:45.376Z,45.60
2023-03-05T01:50:17.465Z,40.72
2023-03-05T01:52:48.931Z,43.83
2023-03-05T01:55:19.824Z,36.58
2023-03-05T01:57:53.942Z,38.00
2023-03-05T02:00:26.427Z,37.50
2023-03-05T02:02:53.538Z,39.30
2023-03-05T02:05:27.048Z,38.63
2023-03-05T02:07:59.117Z,33.20
2023-03-05T02:10:28.794Z,38.97
2023-03-05T02:12:58.655Z,35.92
2023-03-05T02:15:25.393Z,40.90
2023-03-05T02:17:52.120Z,41.65
2023-03-05T02:20:22.755Z,48.50
2023-03-05T02:22:49.371Z,41.05
2023-03-05T02:25:21.866Z,35.97
2023-03-05T02:28:14.770Z,33.30
2023-03-05T02:30:41.368Z,36.72
2023-03-05T02:33:07.968Z,43.10
2023-03-05T02:35:34.554Z,44.20
2023-03-05T02:38:01.141Z,35.15
2023-03-05T02:40:27.950Z,36.00
2023-03-05T02:42:54.540Z,33.80
2023-03-05T02:45:21.497Z,40.78
2023-03-05T02:47:48.085Z,36.03
2023-03-05T02:50:14.682Z,35.15
2023-03-05T02:52:41.345Z,38.15
2023-03-05T02:55:08.365Z,33.63
2023-03-05T02:57:34.917Z,33.47
2023-03-05T03:00:01.584Z,29.02
2023-03-05T03:02:28.213Z,35.03
2023-03-05T03:04:54.860Z,29.00
2023-03-05T03:07:21.436Z,33.67
2023-03-05T03:09:48.093Z,30.33
2023-03-05T03:12:14.958Z,40.72
2023-03-05T03:14:42.680Z,35.83
2023-03-05T03:17:12.366Z,34.20
2023-03-05T03:19:40.126Z,35.10
2023-03-05T03:22:09.038Z,36.70
2023-03-05T03:24:36.924Z,30.98
2023-03-05T03:27:03.997Z,27.67
2023-03-05T03:29:31.309Z,32.28
2023-03-05T03:31:58.645Z,31.80
2023-03-05T03:34:25.998Z,37.33
2023-03-05T03:36:55.350Z,33.55
2023-03-05T03:39:22.380Z,35.90
2023-03-05T03:41:51.397Z,35.85
2023-03-05T03:44:19.656Z,34.30
2023-03-05T03:46:48.532Z,30.53
2023-03-05T03:49:19.181Z,36.90
2023-03-05T03:51:46.442Z,35.92
2023-03-05T03:54:14.495Z,39.35
2023-03-05T03:56:41.110Z,37.92
2023-03-05T03:59:08.404Z,34.63
2023-03-05T04:01:35.037Z,32.85
2023-03-05T04:04:01.772Z,29.17
2023-03-05T04:06:28.385Z,32.50
2023-03-05T04:08:54.983Z,31.83
2023-03-05T04:11:21.705Z,39.60
2023-03-05T04:13:48.850Z,32.53
2023-03-05T04:16:16.366Z,32.08
2023-03-05T04:18:44.194Z,33.78
2023-03-05T04:21:11.537Z,30.15
2023-03-05T04:23:39.335Z,35.03
2023-03-05T04:26:06.450Z,32.58
2023-03-05T04:28:33.391Z,27.58
2023-03-05T04:30:59.992Z,41.30
2023-03-05T04:33:26.551Z,30.80
2023-03-05T04:35:53.172Z,39.25
2023-03-05T04:38:19.769Z,33.90
2023-03-05T04:40:47.303Z,30.95
2023-03-05T04:43:14.030Z,32.47
2023-03-05T04:45:42.393Z,31.75
2023-03-05T04:48:10.788Z,37.90
2023-03-05T04:50:37.760Z,35.75
2023-03-05T04:53:04.456Z,38.92
2023-03-05T04:55:31.163Z,38.97
2023-03-05T04:57:57.946Z,37.42
2023-03-05T05:00:25.232Z,38.78
2023-03-05T05:02:53.362Z,31.63
2023-03-05T05:05:23.437Z,41.65
2023-03-05T05:07:50.270Z,32.45
2023-03-05T05:10:17.461Z,38.00
2023-03-05T05:12:44.062Z,33.42
2023-03-05T05:15:12.796Z,35.72
2023-03-05T05:17:39.392Z,28.02
2023-03-05T05:20:06.855Z,37.92
2023-03-05T05:22:34.601Z,38.83
2023-03-05T05:25:01.311Z,40.55
2023-03-05T05:27:28.123Z,34.05
2023-03-05T05:29:54.712Z,37.00
2023-03-05T05:32:24.051Z,35.75
2023-03-05T05:34:58.223Z,33.55
2023-03-05T05:37:26.265Z,33.63
2023-03-05T05:39:53.292Z,34.05
2023-03-05T05:42:24.505Z,32.97
2023-03-05T05:44:51.605Z,33.25
2023-03-05T05:47:18.893Z,32.72
2023-03-05T05:49:45.667Z,32.45
2023-03-05T05:52:13.304Z,41.10
2023-03-05T05:54:40.243Z,42.70
2023-03-05T05:57:07.379Z,31.80
2023-03-05T05:59:34.017Z,30.52
2023-03-05T06:02:00.698Z,42.10
2023-03-05T06:04:27.261Z,44.30
2023-03-05T06:06:53.737Z,35.28
2023-03-05T06:09:20.705Z,41.55
2023-03-05T06:11:47.642Z,40.47
2023-03-05T06:14:14.400Z,32.60
2023-03-05T06:16:41.227Z,34.42
2023-03-05T06:19:11.478Z,40.90
2023-03-05T06:21:38.084Z,37.60
2023-03-05T06:24:05.019Z,33.90
2023-03-05T06:26:31.548Z,38.97
2023-03-05T06:28:59.180Z,34.00
2023-03-05T06:31:27.449Z,46.67
2023-03-05T06:33:56.613Z,37.53
2023-03-05T06:36:25.249Z,41.60
2023-03-05T06:38:53.408Z,29.30
2023-03-05T06:41:26.215Z,37.15
2023-03-05T06:43:53.215Z,44.70
2023-03-05T06:46:28.612Z,40.55
2023-03-05T06:48:57.272Z,40.88
2023-03-05T06:51:29.805Z,34.75
2023-03-05T06:53:59.460Z,40.05
2023-03-05T06:56:26.156Z,48.05
2023-03-05T06:58:53.253Z,41.28
2023-03-05T07:01:21.261Z,38.05
2023-03-05T07:03:54.610Z,45.70
2023-03-05T07:06:22.500Z,45.38
2023-03-05T07:08:49.587Z,39.60
2023-03-05T07:11:19.224Z,44.92
2023-03-05T07:13:49.212Z,37.92
2023-03-05T07:16:19.072Z,46.28
2023-03-05T07:18:46.483Z,39.40
2023-03-05T07:21:19.386Z,38.97
2023-03-05T07:23:46.159Z,37.42
2023-03-05T07:26:12.833Z,34.97
2023-03-05T07:28:39.452Z,35.70
2023-03-05T07:31:11.547Z,36.22
2023-03-05T07:33:38.203Z,36.20
2023-03-05T07:36:07.419Z,38.97
2023-03-05T07:38:33.990Z,39.50
2023-03-05T07:41:13.437Z,37.53
2023-03-05T07:43:40.868Z,43.90
2023-03-05T07:46:09.706Z,33.83
2023-03-05T07:48:36.422Z,34.75
2023-03-05T07:51:09.225Z,35.58
2023-03-05T07:53:35.894Z,37.90
2023-03-05T07:56:02.985Z,34.85
2023-03-05T07:58:29.517Z,31.00
2023-03-05T08:00:56.021Z,31.48
2023-03-05T08:03:22.555Z,33.35
2023-03-05T08:05:49.209Z,39.05
2023-03-05T08:08:16.500Z,36.88
2023-03-05T08:10:43.070Z,36.85
2023-03-05T08:13:09.851Z,44.50
2023-03-05T08:15:39.508Z,43.03
2023-03-05T08:18:06.303Z,38.47
2023-03-05T08:20:35.678Z,42.88
2023-03-05T08:23:03.284Z,37.20
2023-03-05T08:25:29.857Z,34.28
2023-03-05T08:27:57.017Z,38.35
2023-03-05T08:30:27.141Z,34.97
2023-03-05T08:32:54.660Z,38.28
2023-03-05T08:35:21.473Z,33.75
2023-03-05T08:37:48.524Z,42.28
2023-03-05T08:40:17.941Z,34.10
2023-03-05T08:42:45.087Z,29.42
2023-03-05T08:45:12.126Z,35.05
2023-03-05T08:47:38.710Z,35.15
2023-03-05T08:50:05.705Z,38.35
2023-03-05T08:52:32.249Z,34.97
2023-03-05T08:54:58.868Z,32.47
2023-03-05T08:57:25.429Z,33.92
2023-03-05T08:59:52.014Z,37.72
2023-03-05T09:02:18.634Z,34.65
2023-03-05T09:04:45.232Z,33.00
2023-03-05T09:07:12.953Z,31.10
2023-03-05T09:09:40.363Z,32.03
2023-03-05T09:12:07.195Z,34.08
2023-03-05T09:14:33.811Z,31.40
2023-03-05T09:17:02.055Z,40.53
2023-03-05T09:19:28.620Z,32.38
2023-03-05T09:21:56.970Z,36.97
2023-03-05T09:26:50.163Z,35.55
2023-03-05T09:29:16.773Z,28.02
2023-03-05T09:31:44.141Z,32.50
2023-03-05T09:34:11.816Z,31.58
2023-03-05T09:36:38.664Z,31.90
2023-03-05T09:39:07.007Z,30.67
2023-03-05T09:41:52.303Z,33.35
2023-03-05T09:44:27.746Z,29.65
2023-03-05T09:46:56.899Z,33.40
2023-03-05T09:49:38.391Z,45.97
2023-03-05T09:52:16.683Z,38.47
2023-03-05T09:54:48.045Z,34.85
2023-03-05T09:57:22.174Z,36.42
2023-03-05T09:59:54.152Z,38.92
2023-03-05T10:02:34.110Z,35.35
2023-03-05T10:05:20.528Z,37.05
2023-03-05T10:07:57.651Z,36.88
2023-03-05T10:10:47.682Z,39.70
2023-03-05T10:13:24.397Z,38.67
2023-03-05T10:16:25.455Z,42.72
2023-03-05T10:19:16.853Z,44.60
2023-03-05T10:21:53.534Z,42.95
2023-03-05T10:24:36.515Z,39.60
2023-03-05T10:27:09.980Z,37.33
2023-03-05T10:29:36.560Z,32.05
2023-03-05T10:32:21.874Z,36.28
2023-03-05T10:34:57.267Z,36.30
2023-03-05T10:37:32.954Z,39.10
2023-03-05T10:39:59.448Z,34.40
2023-03-05T10:42:51.916Z,35.20
2023-03-05T10:45:22.986Z,36.38
2023-03-05T10:48:03.408Z,36.40
2023-03-05T10:50:53.706Z,32.08
2023-03-05T10:53:45.146Z,33.35
2023-03-05T10:56:12.578Z,35.97
2023-03-05T10:58:39.348Z,31.70
2023-03-05T11:01:22.126Z,34.97
2023-03-05T11:03:56.702Z,30.48
2023-03-05T11:06:47.551Z,39.17
2023-03-05T11:09:18.285Z,34.25
2023-03-05T11:12:04.697Z,33.30
2023-03-05T11:14:33.667Z,33.85
2023-03-05T11:17:24.177Z,35.88
2023-03-05T11:19:50.962Z,36.80
2023-03-05T11:22:22.646Z,33.30
2023-03-05T11:25:15.574Z,33.03
2023-03-05T11:27:50.431Z,36.13
2023-03-05T11:30:24.668Z,33.58
2023-03-05T11:33:10.273Z,35.90
2023-03-05T11:35:40.241Z,36.80
2023-03-05T11:38:16.895Z,36.08
2023-03-05T11:40:43.725Z,33.63
2023-03-05T11:43:16.229Z,35.25
2023-03-05T11:45:44.199Z,32.75
2023-03-05T11:48:25.280Z,32.60
2023-03-05T11:50:56.973Z,32.58
2023-03-05T11:53:35.578Z,37.65
2023-03-05T11:58:46.770Z,33.20
2023-03-05T12:01:25.274Z,34.22
2023-03-05T12:03:53.033Z,32.53
2023-03-05T12:06:40.943Z,37.85
2023-03-05T12:09:13.726Z,35.00
2023-03-05T12:11:40.915Z,36.47
2023-03-05T12:14:32.892Z,36.38
2023-03-05T12:17:37.934Z,35.05
2023-03-05T12:20:15.749Z,35.60
2023-03-05T12:22:44.654Z,34.70
2023-03-05T12:25:34.363Z,42.00
2023-03-05T12:28:02.290Z,41.75
2023-03-05T12:30:34.764Z,36.97
2023-03-05T12:33:03.359Z,41.53
2023-03-05T12:35:36.851Z,37.10
2023-03-05T12:38:29.025Z,35.00
2023-03-05T12:41:23.380Z,37.50
2023-03-05T12:44:05.089Z,34.05
2023-03-05T12:46:43.165Z,32.28
2023-03-05T12:49:19.072Z,40.55
2023-03-05T12:51:48.086Z,34.08
2023-03-05T12:54:26.940Z,37.63
2023-03-05T12:56:56.814Z,33.75
2023-03-05T12:59:25.973Z,34.05
2023-03-05T13:01:58.139Z,33.35
2023-03-05T13:04:31.836Z,40.63
2023-03-05T13:07:13.671Z,38.40
2023-03-05T13:09:40.377Z,38.33
2023-03-05T13:12:14.112Z,41.47
2023-03-05T13:14:45.481Z,39.10
2023-03-05T13:17:34.563Z,38.38
2023-03-05T13:20:06.084Z,40.50
2023-03-05T13:22:33.027Z,37.45
2023-03-05T13:25:15.002Z,38.05
2023-03-05T13:27:42.440Z,44.17
2023-03-05T13:30:28.155Z,40.40
2023-03-05T13:33:03.551Z,40.17
2023-03-05T13:35:33.778Z,38.22
2023-03-05T13:38:02.143Z,38.83
2023-03-05T13:40:31.114Z,34.95
2023-03-05T13:43:12.053Z,36.72
2023-03-05T13:45:43.836Z,39.22
2023-03-05T13:48:20.021Z,42.20
2023-03-05T13:50:46.612Z,39.70
2023-03-05T13:53:31.949Z,38.65
2023-03-05T13:56:02.202Z,37.58
2023-03-05T13:58:58.043Z,39.35
2023-03-05T14:01:27.460Z,42.72
2023-03-05T14:03:57.356Z,40.05
2023-03-05T14:06:27.184Z,37.97
2023-03-05T14:09:07.117Z,35.45
2023-03-05T14:11:35.511Z,35.67
2023-03-05T14:14:09.730Z,40.75
2023-03-05T14:16:36.988Z,37.10
2023-03-05T14:19:09.222Z,39.58
2023-03-05T14:21:48.144Z,41.17
2023-03-05T14:24:22.753Z,36.45
2023-03-05T14:27:14.114Z,36.03
2023-03-05T14:29:46.241Z,35.85
2023-03-05T14:32:28.276Z,35.10
2023-03-05T14:34:58.254Z,43.80
2023-03-05T14:37:32.532Z,40.92
2023-03-05T14:40:07.338Z,42.40
2023-03-05T14:42:38.725Z,48.75
2023-03-05T14:45:14.015Z,38.67
2023-03-05T14:47:41.217Z,39.33
2023-03-05T14:50:14.811Z,37.35
2023-03-05T14:52:41.432Z,38.22
2023-03-05T14:55:13.619Z,35.38
2023-03-05T14:57:40.255Z,46.58
2023-03-05T15:00:16.223Z,35.88
2023-03-05T15:02:42.773Z,38.95
2023-03-05T15:05:09.621Z,40.80
2023-03-05T15:07:36.970Z,46.03
2023-03-05T15:10:04.713Z,40.53
2023-03-05T15:12:31.250Z,38.95
2023-03-05T15:14:57.843Z,37.17
2023-03-05T15:17:37.824Z,42.15
2023-03-05T15:20:10.250Z,38.25
2023-03-05T15:22:37.326Z,41.47
2023-03-05T15:25:04.391Z,43.15
2023-03-05T15:27:30.976Z,46.30
2023-03-05T15:29:59.017Z,47.58
2023-03-05T15:32:30.633Z,43.55
2023-03-05T15:34:58.427Z,45.35
2023-03-05T15:37:26.039Z,42.30
2023-03-05T15:39:53.157Z,41.20
2023-03-05T15:42:19.712Z,47.45
2023-03-05T15:44:46.339Z,39.30
2023-03-05T15:47:12.889Z,38.53
2023-03-05T15:49:39.405Z,38.45
2023-03-05T15:52:06.111Z,41.75
2023-03-05T15:54:32.827Z,37.58
2023-03-05T15:56:59.401Z,40.85
2023-03-05T15:59:26.703Z,37.53
2023-03-05T16:01:53.388Z,39.55
2023-03-05T16:04:20.005Z,44.03
2023-03-05T16:06:49.481Z,40.95
2023-03-05T16:09:17.674Z,43.00
2023-03-05T16:11:48.070Z,38.72
2023-03-05T16:14:19.409Z,40.15
2023-03-05T16:16:46.239Z,33.97
2023-03-05T16:19:16.419Z,45.05
2023-03-05T16:21:43.107Z,45.00
2023-03-05T16:24:09.682Z,44.60
2023-03-05T16:26:38.002Z,42.72
2023-03-05T16:29:05.166Z,46.72
2023-03-05T16:31:44.961Z,43.88
2023-03-05T16:34:14.100Z,44.03
2023-03-05T16:36:45.952Z,53.28
2023-03-05T16:39:12.474Z,48.35
2023-03-05T16:41:39.514Z,51.95
2023-03-05T16:44:06.353Z,50.50
2023-03-05T16:46:35.100Z,46.15
2023-03-05T16:49:02.033Z,45.58
2023-03-05T16:51:36.294Z,46.33
2023-03-05T16:54:03.777Z,48.90
2023-03-05T16:56:30.577Z,47.10
2023-03-05T16:58:57.411Z,46.35
2023-03-05T17:01:25.422Z,47.38
2023-03-05T17:03:53.832Z,48.37
2023-03-05T17:06:26.482Z,47.65
2023-03-05T17:08:55.155Z,47.63
2023-03-05T17:11:22.294Z,50.05
2023-03-05T17:13:49.223Z,48.58
2023-03-05T17:16:17.643Z,49.22
2023-03-05T17:18:45.473Z,51.63
2023-03-05T17:21:12.370Z,48.60
2023-03-05T17:23:40.270Z,52.88
2023-03-05T17:26:09.893Z,50.30
2023-03-05T17:28:36.974Z,66.28
2023-03-05T17:31:04.042Z,51.97
2023-03-05T17:33:36.093Z,55.28
2023-03-05T17:36:03.903Z,43.78
2023-03-05T17:38:30.650Z,38.35
2023-03-05T17:40:57.475Z,57.78
2023-03-05T17:43:24.406Z,52.80
2023-03-05T17:45:51.149Z,51.88
2023-03-05T17:48:17.792Z,49.05
2023-03-05T17:50:45.146Z,51.08
2023-03-05T17:53:12.461Z,39.97
2023-03-05T17:55:40.015Z,39.72
2023-03-05T17:58:06.958Z,47.22
2023-03-05T18:00:33.800Z,47.00
2023-03-05T18:03:00.750Z,49.13
2023-03-05T18:05:28.959Z,46.85
2023-03-05T18:07:56.651Z,44.00
2023-03-05T18:10:25.442Z,48.40
2023-03-05T18:12:52.444Z,50.33
2023-03-05T18:15:21.391Z,55.10
2023-03-05T18:20:36.513Z,53.13
2023-03-05T18:23:05.177Z,51.00
2023-03-05T18:25:32.036Z,50.15
2023-03-05T18:28:04.984Z,49.13
2023-03-05T18:30:32.422Z,43.75
2023-03-05T18:32:59.431Z,47.72
2023-03-05T18:35:26.151Z,54.35
2023-03-05T18:37:53.540Z,45.20
2023-03-05T18:40:23.509Z,51.83
2023-03-05T18:42:50.918Z,48.78
2023-03-05T18:45:20.232Z,45.45
2023-03-05T18:47:47.957Z,45.22
2023-03-05T18:50:18.481Z,44.90
2023-03-05T18:52:45.414Z,46.83
2023-03-05T18:55:21.543Z,46.90
2023-03-05T18:57:49.139Z,59.67
2023-03-05T19:00:18.649Z,55.92
2023-03-05T19:02:45.289Z,51.55
2023-03-05T19:05:13.844Z,46.80
2023-03-05T19:07:40.620Z,55.60
2023-03-05T19:10:09.862Z,51.33
2023-03-05T19:13:39.996Z,49.60
2023-03-05T19:16:12.408Z,52.90
2023-03-05T19:19:25.449Z,50.53
2023-03-05T19:21:55.228Z,42.25
2023-03-05T19:24:23.309Z,47.47
2023-03-05T19:26:55.037Z,43.60
2023-03-05T19:29:26.266Z,49.72
2023-03-05T19:31:53.684Z,52.30
2023-03-05T19:34:21.145Z,51.00
2023-03-05T19:36:48.055Z,52.67
2023-03-05T19:39:15.627Z,51.42
2023-03-05T19:41:42.386Z,47.65
2023-03-05T19:44:08.945Z,51.72
2023-03-05T19:46:35.611Z,50.97
2023-03-05T19:49:02.203Z,43.05
2023-03-05T19:51:29.180Z,35.58
2023-03-05T19:54:00.005Z,45.45
2023-03-05T19:56:27.079Z,39.35
2023-03-05T19:58:53.622Z,40.30
2023-03-05T20:01:26.028Z,42.78
2023-03-05T20:03:58.690Z,42.50
2023-03-05T20:06:26.746Z,38.38
2023-03-05T20:08:53.893Z,39.57
2023-03-05T20:11:21.795Z,37.97
2023-03-05T20:13:49.650Z,46.97
2023-03-05T20:16:25.378Z,46.58
2023-03-05T20:18:54.841Z,41.85
2023-03-05T20:21:29.153Z,44.03
2023-03-05T20:23:58.726Z,36.55
2023-03-05T20:26:26.714Z,39.05
2023-03-05T20:28:54.860Z,35.40
2023-03-05T20:31:23.687Z,37.33
2023-03-05T20:33:50.291Z,34.80
2023-03-05T20:36:16.881Z,43.38
2023-03-05T20:38:45.177Z,34.55
2023-03-05T20:41:14.347Z,39.28
2023-03-05T20:43:46.520Z,35.65
2023-03-05T20:46:16.072Z,37.17
2023-03-05T20:48:42.842Z,38.75
2023-03-05T20:51:14.723Z,36.50
2023-03-05T20:53:41.818Z,35.78
2023-03-05T20:56:08.384Z,39.70
2023-03-05T20:58:34.989Z,43.92
2023-03-05T21:01:01.602Z,40.05
2023-03-05T21:03:28.139Z,41.83
2023-03-05T21:05:56.507Z,44.75
2023-03-05T21:08:23.750Z,49.35
2023-03-05T21:10:50.728Z,43.40
2023-03-05T21:13:17.241Z,41.35
2023-03-05T21:15:43.753Z,49.28
2023-03-05T21:18:10.606Z,42.83
2023-03-05T21:20:37.138Z,47.25
2023-03-05T21:23:04.250Z,44.20
2023-03-05T21:25:32.733Z,47.55
2023-03-05T21:28:18.772Z,44.70
2023-03-05T21:30:48.516Z,45.97
2023-03-05T21:33:18.225Z,41.67
2023-03-05T21:35:45.249Z,44.75
2023-03-05T21:38:12.941Z,50.83
2023-03-05T21:40:45.317Z,42.33
2023-03-05T21:43:13.190Z,45.90
2023-03-05T21:45:40.478Z,43.17
2023-03-05T21:48:07.959Z,44.08
2023-03-05T21:50:35.350Z,47.45
2023-03-05T21:53:02.584Z,53.97
2023-03-05T21:56:25.231Z,54.38
2023-03-05T21:58:52.628Z,45.80
2023-03-05T22:01:21.786Z,48.30
2023-03-05T22:03:49.056Z,39.80
2023-03-05T22:06:19.972Z,48.97
2023-03-05T22:08:47.272Z,43.92
2023-03-05T22:11:16.505Z,44.53
2023-03-05T22:13:43.203Z,43.00
2023-03-05T22:16:10.263Z,47.05
2023-03-05T22:18:39.702Z,46.45
2023-03-05T22:21:22.265Z,51.28
2023-03-05T22:23:49.750Z,42.38
2023-03-05T22:26:16.328Z,42.83
2023-03-05T22:28:42.919Z,44.00
2023-03-05T22:31:10.360Z,44.67
2023-03-05T22:33:37.591Z,45.15
2023-03-05T22:36:09.626Z,45.50
2023-03-05T22:38:36.222Z,46.42
2023-03-05T22:41:08.381Z,46.40
2023-03-05T22:43:35.192Z,47.40
2023-03-05T22:46:16.145Z,46.88
2023-03-05T22:48:43.662Z,46.95
2023-03-05T22:51:11.376Z,40.35
2023-03-05T22:53:39.179Z,49.95
2023-03-05T22:56:16.297Z,42.95
2023-03-05T22:58:43.237Z,45.95
2023-03-05T23:01:18.492Z,41.70
2023-03-05T23:04:59.289Z,47.10
2023-03-05T23:07:33.206Z,42.15
2023-03-05T23:10:26.918Z,47.58
2023-03-05T23:12:56.630Z,58.33
2023-03-05T23:15:32.731Z,46.58
2023-03-05T23:17:59.527Z,54.70
2023-03-05T23:20:29.264Z,42.70
2023-03-05T23:22:56.475Z,48.33
2023-03-05T23:25:25.529Z,41.45
2023-03-05T23:30:39.433Z,43.70
2023-03-05T23:33:11.905Z,36.58
2023-03-05T23:35:50.449Z,39.90
2023-03-05T23:38:17.097Z,46.03
2023-03-05T23:40:49.897Z,40.28
2023-03-05T23:43:17.965Z,44.30
2023-03-05T23:45:47.998Z,42.15
2023-03-05T23:48:15.745Z,39.72
2023-03-05T23:50:44.519Z,42.08
2023-03-05T23:53:19.545Z,44.60
2023-03-05T23:55:47.021Z,46.70
2023-03-05T23:58:14.732Z,43.47
